createdAt,value
2017-11-09T00:02:04.612Z,36.87
2017-11-09T00:04:38.632Z,34.07
2017-11-09T00:07:06.941Z,38.93
2017-11-09T00:09:34.499Z,35.50
2017-11-09T00:12:03.047Z,37.97
2017-11-09T00:14:31.315Z,37.93
2017-11-09T00:16:59.598Z,39.43
2017-11-09T00:19:27.904Z,41.67
2017-11-09T00:21:55.457Z,36.07
2017-11-09T00:24:22.958Z,37.03
2017-11-09T00:26:50.460Z,38.93
2017-11-09T00:29:18.744Z,33.53
2017-11-09T00:31:46.277Z,40.30
2017-11-09T00:34:13.860Z,36.07
2017-11-09T00:36:41.399Z,38.50
2017-11-09T00:39:09.806Z,32.70
2017-11-09T00:41:37.340Z,40.50
2017-11-09T00:44:05.137Z,37.03
2017-11-09T00:46:32.642Z,40.30
2017-11-09T00:49:00.162Z,38.93
2017-11-09T00:51:27.700Z,35.33
2017-11-09T00:53:55.970Z,39.80
2017-11-09T00:56:24.574Z,40.10
2017-11-09T00:58:52.081Z,38.10
2017-11-09T01:01:19.581Z,39.43
2017-11-09T01:03:47.211Z,38.13
2017-11-09T01:06:14.714Z,37.73
2017-11-09T01:08:42.224Z,39.57
2017-11-09T01:11:09.749Z,42.37
2017-11-09T01:13:37.333Z,41.43
2017-11-09T01:16:04.816Z,36.37
2017-11-09T01:18:33.133Z,39.23
2017-11-09T01:21:00.626Z,38.90
2017-11-09T01:23:28.154Z,38.97
2017-11-09T01:25:55.774Z,40.10
2017-11-09T01:28:24.059Z,40.83
2017-11-09T01:30:52.342Z,43.47
2017-11-09T01:33:20.616Z,40.90
2017-11-09T01:35:48.938Z,43.93
2017-11-09T01:38:16.454Z,39.10
2017-11-09T01:40:45.393Z,43.43
2017-11-09T01:43:12.904Z,44.30
2017-11-09T01:45:41.234Z,40.53
2017-11-09T01:48:08.763Z,41.23
2017-11-09T01:50:37.333Z,37.57
2017-11-09T01:53:05.615Z,41.13
2017-11-09T01:55:33.277Z,41.47
2017-11-09T01:58:00.800Z,43.93
2017-11-09T02:00:28.426Z,40.53
2017-11-09T02:02:55.932Z,40.83
2017-11-09T02:05:23.741Z,38.30
2017-11-09T02:07:51.253Z,42.67
2017-11-09T02:10:18.773Z,43.33
2017-11-09T02:12:46.297Z,43.47
2017-11-09T02:15:14.578Z,43.07
2017-11-09T02:17:42.096Z,43.70
2017-11-09T02:20:09.616Z,42.87
2017-11-09T02:22:37.122Z,41.60
2017-11-09T02:25:04.616Z,43.90
2017-11-09T02:27:32.484Z,39.77
2017-11-09T02:29:59.988Z,36.47
2017-11-09T02:32:27.488Z,38.60
2017-11-09T02:34:55.028Z,36.30
2017-11-09T02:37:22.536Z,37.63
2017-11-09T02:39:50.044Z,35.50
2017-11-09T02:42:17.553Z,36.53
2017-11-09T02:44:45.068Z,34.40
2017-11-09T02:47:12.585Z,39.87
2017-11-09T02:49:40.447Z,37.50
2017-11-09T02:52:08.000Z,35.33
2017-11-09T02:54:35.501Z,40.47
2017-11-09T02:57:03.313Z,33.53
2017-11-09T02:59:30.820Z,35.67
2017-11-09T03:01:58.317Z,38.50
2017-11-09T03:04:26.598Z,37.53
2017-11-09T03:06:54.866Z,33.80
2017-11-09T03:09:22.378Z,41.33
2017-11-09T03:11:49.905Z,40.07
2017-11-09T03:14:17.398Z,42.93
2017-11-09T03:16:44.889Z,40.27
2017-11-09T03:19:13.182Z,39.83
2017-11-09T03:21:41.445Z,40.10
2017-11-09T03:24:09.717Z,40.87
2017-11-09T03:26:38.265Z,39.70
2017-11-09T03:29:05.780Z,42.23
2017-11-09T03:31:33.341Z,40.93
2017-11-09T03:34:00.854Z,39.67
2017-11-09T03:36:28.354Z,38.73
2017-11-09T03:38:56.610Z,38.40
2017-11-09T03:41:24.191Z,45.23
2017-11-09T03:43:52.501Z,42.47
2017-11-09T03:46:20.002Z,43.03
2017-11-09T03:48:47.792Z,39.70
2017-11-09T03:51:16.058Z,40.63
2017-11-09T03:53:44.313Z,43.03
2017-11-09T03:56:12.607Z,45.17
2017-11-09T03:58:40.873Z,41.47
2017-11-09T04:01:08.369Z,42.43
2017-11-09T04:03:36.232Z,43.73
2017-11-09T04:06:03.746Z,42.43
2017-11-09T04:08:32.127Z,39.83
2017-11-09T04:10:59.782Z,46.20
2017-11-09T04:13:27.294Z,46.23
2017-11-09T04:15:54.799Z,44.13
2017-11-09T04:18:22.404Z,44.87
2017-11-09T04:20:50.667Z,45.53
2017-11-09T04:23:19.282Z,45.80
2017-11-09T04:25:46.787Z,48.47
2017-11-09T04:28:14.614Z,47.50
2017-11-09T04:30:42.150Z,46.67
2017-11-09T04:33:09.678Z,48.40
2017-11-09T04:35:37.281Z,50.37
2017-11-09T04:38:04.828Z,49.70
2017-11-09T04:40:33.101Z,51.47
2017-11-09T04:43:00.606Z,50.20
2017-11-09T04:45:28.438Z,52.00
2017-11-09T04:47:55.953Z,49.67
2017-11-09T04:50:23.451Z,50.83
2017-11-09T04:52:52.051Z,53.60
2017-11-09T04:55:19.568Z,51.03
2017-11-09T04:57:47.059Z,51.27
2017-11-09T05:00:14.704Z,52.10
2017-11-09T05:02:42.959Z,49.60
2017-11-09T05:05:10.473Z,49.27
2017-11-09T05:07:38.163Z,53.07
2017-11-09T05:10:05.676Z,52.10
2017-11-09T05:12:33.214Z,48.20
2017-11-09T05:15:01.488Z,52.60
2017-11-09T05:17:28.997Z,51.73
2017-11-09T05:19:56.538Z,48.30
2017-11-09T05:22:24.074Z,51.87
2017-11-09T05:24:52.389Z,50.33
2017-11-09T05:27:19.891Z,48.93
2017-11-09T05:29:48.206Z,49.67
2017-11-09T05:32:15.736Z,50.93
2017-11-09T05:34:43.374Z,49.87
2017-11-09T05:37:10.878Z,49.70
2017-11-09T05:39:39.174Z,51.00
2017-11-09T05:42:06.671Z,47.70
2017-11-09T05:44:34.178Z,48.27
2017-11-09T05:47:01.706Z,48.60
2017-11-09T05:49:29.266Z,48.27
2017-11-09T05:51:56.782Z,50.27
2017-11-09T05:54:24.621Z,51.00
2017-11-09T05:56:52.995Z,48.83
2017-11-09T05:59:21.362Z,49.33
2017-11-09T06:01:49.648Z,48.47
2017-11-09T06:04:17.914Z,50.27
2017-11-09T06:06:45.434Z,50.07
2017-11-09T06:09:12.962Z,46.80
2017-11-09T06:11:43.689Z,47.03
2017-11-09T06:14:11.234Z,47.53
2017-11-09T06:16:39.513Z,50.57
2017-11-09T06:19:07.782Z,46.17
2017-11-09T06:21:36.084Z,45.77
2017-11-09T06:24:03.673Z,49.03
2017-11-09T06:26:31.191Z,41.87
2017-11-09T06:28:59.443Z,47.40
2017-11-09T06:31:26.966Z,45.63
2017-11-09T06:33:54.514Z,45.27
2017-11-09T06:36:22.008Z,46.80
2017-11-09T06:38:49.625Z,46.93
2017-11-09T06:41:17.425Z,46.07
2017-11-09T06:43:44.946Z,46.43
2017-11-09T06:46:12.445Z,44.17
2017-11-09T06:48:39.939Z,46.63
2017-11-09T06:51:08.221Z,47.93
2017-11-09T06:53:36.959Z,47.57
2017-11-09T06:56:04.481Z,46.67
2017-11-09T06:58:31.988Z,46.83
2017-11-09T07:00:59.501Z,48.63
2017-11-09T07:03:27.774Z,47.63
2017-11-09T07:05:55.283Z,48.90
2017-11-09T07:08:22.818Z,50.10
2017-11-09T07:10:50.312Z,49.80
2017-11-09T07:13:17.801Z,50.67
2017-11-09T07:15:46.142Z,45.70
2017-11-09T07:18:13.641Z,46.13
2017-11-09T07:20:41.920Z,48.43
2017-11-09T07:23:10.200Z,43.13
2017-11-09T07:25:38.465Z,46.17
2017-11-09T07:28:06.736Z,47.70
2017-11-09T07:30:35.011Z,45.53
2017-11-09T07:33:03.301Z,46.67
2017-11-09T07:35:31.578Z,50.37
2017-11-09T07:37:59.884Z,49.97
2017-11-09T07:40:27.593Z,46.80
2017-11-09T07:42:55.103Z,47.87
2017-11-09T07:45:22.621Z,46.30
2017-11-09T07:47:50.133Z,49.27
2017-11-09T07:50:17.640Z,48.40
2017-11-09T07:52:45.169Z,42.90
2017-11-09T07:55:12.677Z,45.77
2017-11-09T07:57:40.960Z,48.30
2017-11-09T08:00:08.461Z,45.57
2017-11-09T08:02:35.966Z,44.90
2017-11-09T08:05:04.321Z,46.40
2017-11-09T08:07:31.815Z,47.13
2017-11-09T08:09:59.336Z,47.50
2017-11-09T08:12:26.854Z,47.93
2017-11-09T08:14:54.352Z,46.70
2017-11-09T08:17:21.969Z,43.50
2017-11-09T08:19:49.469Z,46.80
2017-11-09T08:22:17.005Z,48.87
2017-11-09T08:24:47.530Z,46.63
2017-11-09T08:27:18.197Z,47.93
2017-11-09T08:29:47.464Z,46.80
2017-11-09T08:32:19.165Z,43.93
2017-11-09T08:34:46.661Z,45.40
2017-11-09T08:37:14.157Z,46.13
2017-11-09T08:39:42.233Z,45.13
2017-11-09T08:42:09.951Z,43.13
2017-11-09T08:44:37.505Z,45.53
2017-11-09T08:47:05.064Z,44.57
2017-11-09T08:49:32.578Z,45.83
2017-11-09T08:52:00.080Z,45.83
2017-11-09T08:54:27.589Z,42.53
2017-11-09T08:56:55.097Z,42.40
2017-11-09T08:59:22.612Z,44.67
2017-11-09T09:01:50.113Z,42.20
2017-11-09T09:04:17.619Z,42.73
2017-11-09T09:06:45.979Z,40.53
2017-11-09T09:09:13.622Z,41.87
2017-11-09T09:11:41.146Z,40.30
2017-11-09T09:14:08.642Z,43.23
2017-11-09T09:16:36.144Z,40.80
2017-11-09T09:19:03.652Z,41.93
2017-11-09T09:21:33.127Z,39.50
2017-11-09T09:24:15.531Z,39.33
2017-11-09T09:26:59.821Z,40.80
2017-11-09T09:29:29.829Z,39.53
2017-11-09T09:31:57.326Z,38.80
2017-11-09T09:34:28.722Z,39.10
2017-11-09T09:37:00.311Z,38.17
2017-11-09T09:39:44.220Z,38.33
2017-11-09T09:42:12.524Z,38.10
2017-11-09T09:44:40.037Z,37.73
2017-11-09T09:47:07.542Z,37.33
2017-11-09T09:49:35.052Z,37.63
2017-11-09T09:52:02.656Z,35.17
2017-11-09T09:54:30.160Z,33.70
2017-11-09T09:56:57.654Z,33.33
2017-11-09T09:59:25.931Z,34.70
2017-11-09T10:01:54.207Z,36.40
2017-11-09T10:04:22.471Z,36.00
2017-11-09T10:06:49.974Z,37.23
2017-11-09T10:09:17.473Z,38.13
2017-11-09T10:11:44.999Z,35.93
2017-11-09T10:14:12.498Z,38.47
2017-11-09T10:16:40.010Z,38.47
2017-11-09T10:19:07.522Z,38.07
2017-11-09T10:21:35.031Z,36.47
2017-11-09T10:24:02.565Z,38.07
2017-11-09T10:26:30.824Z,38.47
2017-11-09T10:28:58.317Z,35.13
2017-11-09T10:31:25.823Z,35.90
2017-11-09T10:33:53.311Z,35.57
2017-11-09T10:36:21.584Z,36.67
2017-11-09T10:38:49.844Z,36.83
2017-11-09T10:41:17.341Z,34.63
2017-11-09T10:43:44.836Z,34.70
2017-11-09T10:46:12.324Z,34.77
2017-11-09T10:48:39.838Z,35.83
2017-11-09T10:51:07.337Z,33.00
2017-11-09T10:53:34.833Z,36.47
2017-11-09T10:56:02.963Z,34.83
2017-11-09T10:58:30.465Z,35.23
2017-11-09T11:00:58.000Z,35.73
2017-11-09T11:03:26.265Z,36.40
2017-11-09T11:05:53.856Z,36.07
2017-11-09T11:08:21.353Z,36.10
2017-11-09T11:10:49.097Z,35.80
2017-11-09T11:13:16.605Z,36.40
2017-11-09T11:15:44.102Z,35.67
2017-11-09T11:18:11.677Z,33.97
2017-11-09T11:20:39.183Z,35.60
2017-11-09T11:23:06.690Z,36.90
2017-11-09T11:25:34.283Z,39.53
2017-11-09T11:28:01.911Z,36.10
2017-11-09T11:30:29.420Z,35.87
2017-11-09T11:32:56.926Z,37.47
2017-11-09T11:35:24.418Z,37.67
2017-11-09T11:37:51.923Z,36.23
2017-11-09T11:40:20.199Z,38.47
2017-11-09T11:42:48.554Z,40.47
2017-11-09T11:45:16.089Z,36.73
2017-11-09T11:47:43.587Z,39.73
2017-11-09T11:50:11.889Z,40.80
2017-11-09T11:52:39.470Z,37.47
2017-11-09T11:55:06.986Z,38.50
2017-11-09T11:57:35.278Z,39.90
2017-11-09T12:00:02.809Z,41.33
2017-11-09T12:02:30.342Z,39.20
2017-11-09T12:05:00.846Z,39.30
2017-11-09T12:07:28.355Z,42.47
2017-11-09T12:09:55.856Z,40.83
2017-11-09T12:12:24.160Z,41.67
2017-11-09T12:14:51.690Z,41.67
2017-11-09T12:17:19.197Z,39.83
2017-11-09T12:19:46.818Z,41.97
2017-11-09T12:22:14.320Z,40.50
2017-11-09T12:24:42.344Z,40.33
2017-11-09T12:27:09.882Z,40.63
2017-11-09T12:29:38.148Z,39.77
2017-11-09T12:32:06.434Z,39.77
2017-11-09T12:34:34.708Z,42.73
2017-11-09T12:37:03.315Z,42.37
2017-11-09T12:39:30.814Z,40.03
2017-11-09T12:41:58.310Z,42.23
2017-11-09T12:44:25.863Z,38.43
2017-11-09T12:46:54.124Z,40.63
2017-11-09T12:49:21.639Z,40.67
2017-11-09T12:51:49.140Z,40.63
2017-11-09T12:54:16.638Z,40.70
2017-11-09T12:56:44.157Z,41.20
2017-11-09T12:59:11.661Z,39.97
2017-11-09T13:01:39.181Z,41.70
2017-11-09T13:04:06.688Z,39.17
2017-11-09T13:06:34.198Z,40.23
2017-11-09T13:09:01.696Z,40.10
2017-11-09T13:11:29.194Z,40.20
2017-11-09T13:13:57.014Z,39.57
2017-11-09T13:16:25.286Z,37.67
2017-11-09T13:18:53.560Z,39.60
2017-11-09T13:21:21.872Z,39.63
2017-11-09T13:23:49.389Z,39.90
2017-11-09T13:26:17.651Z,39.73
2017-11-09T13:28:45.170Z,37.90
2017-11-09T13:31:12.691Z,37.67
2017-11-09T13:33:41.062Z,38.73
2017-11-09T13:36:09.345Z,37.33
2017-11-09T13:38:37.620Z,38.07
2017-11-09T13:41:06.033Z,34.27
2017-11-09T13:43:33.534Z,34.97
2017-11-09T13:46:01.822Z,33.07
2017-11-09T13:48:29.333Z,34.63
2017-11-09T13:50:56.835Z,32.87
2017-11-09T13:53:24.334Z,35.23
2017-11-09T13:55:51.884Z,35.00
2017-11-09T13:58:20.159Z,36.23
2017-11-09T14:00:47.720Z,33.57
2017-11-09T14:03:15.992Z,33.90
2017-11-09T14:05:44.253Z,33.33
2017-11-09T14:08:12.539Z,35.33
2017-11-09T14:10:40.066Z,33.70
2017-11-09T14:13:07.578Z,33.17
2017-11-09T14:15:35.078Z,33.07
2017-11-09T14:18:02.675Z,34.60
2017-11-09T14:20:30.227Z,35.07
2017-11-09T14:22:58.510Z,35.20
2017-11-09T14:25:26.801Z,34.90
2017-11-09T14:27:55.066Z,35.30
2017-11-09T14:30:23.889Z,34.77
2017-11-09T14:32:51.393Z,33.30
2017-11-09T14:35:18.893Z,35.43
2017-11-09T14:37:46.412Z,32.70
2017-11-09T14:40:13.922Z,35.47
2017-11-09T14:42:41.417Z,35.87
2017-11-09T14:45:08.925Z,34.47
2017-11-09T14:47:36.443Z,35.63
2017-11-09T14:50:03.978Z,35.67
2017-11-09T14:52:31.472Z,34.20
2017-11-09T14:54:59.801Z,33.00
2017-11-09T14:57:27.319Z,34.37
2017-11-09T14:59:55.593Z,33.33
2017-11-09T15:02:23.888Z,32.00
2017-11-09T15:04:52.185Z,32.03
2017-11-09T15:07:19.725Z,30.87
2017-11-09T15:09:47.247Z,29.07
2017-11-09T15:12:14.766Z,30.40
2017-11-09T15:14:42.644Z,29.33
2017-11-09T15:17:10.172Z,27.90
2017-11-09T15:19:37.683Z,27.23
2017-11-09T15:22:05.506Z,27.97
2017-11-09T15:24:33.072Z,27.23
2017-11-09T15:27:00.588Z,27.50
2017-11-09T15:29:28.138Z,27.23
2017-11-09T15:31:56.423Z,28.00
2017-11-09T15:34:23.930Z,28.23
2017-11-09T15:36:51.443Z,27.40
2017-11-09T15:39:19.012Z,26.40
2017-11-09T15:41:47.278Z,26.97
2017-11-09T15:44:14.790Z,29.17
2017-11-09T15:46:42.282Z,26.47
2017-11-09T15:49:10.114Z,28.63
2017-11-09T15:51:37.659Z,29.30
2017-11-09T15:54:05.158Z,31.30
2017-11-09T15:56:32.673Z,30.23
2017-11-09T15:59:00.164Z,31.17
2017-11-09T16:01:27.673Z,28.87
2017-11-09T16:03:55.969Z,28.63
2017-11-09T16:06:23.481Z,36.88
2017-11-09T16:08:50.972Z,32.27
2017-11-09T16:11:19.261Z,32.03
2017-11-09T16:13:46.770Z,30.83
2017-11-09T16:16:15.433Z,32.60
2017-11-09T16:18:42.944Z,31.53
2017-11-09T16:21:11.281Z,30.93
2017-11-09T16:23:38.925Z,33.10
2017-11-09T16:26:06.430Z,32.63
2017-11-09T16:28:36.733Z,33.93
2017-11-09T16:31:04.247Z,34.47
2017-11-09T16:33:31.801Z,33.27
2017-11-09T16:36:00.107Z,34.50
2017-11-09T16:38:27.593Z,33.93
2017-11-09T16:40:55.324Z,33.73
2017-11-09T16:43:22.860Z,34.87
2017-11-09T16:45:51.157Z,35.07
2017-11-09T16:48:18.697Z,34.67
2017-11-09T16:50:46.265Z,36.87
2017-11-09T16:53:13.873Z,38.07
2017-11-09T16:55:41.376Z,36.83
2017-11-09T16:58:09.442Z,38.20
2017-11-09T17:00:37.748Z,39.27
2017-11-09T17:03:05.254Z,36.47
2017-11-09T17:05:33.636Z,38.57
2017-11-09T17:08:01.150Z,37.80
2017-11-09T17:10:28.691Z,39.80
2017-11-09T17:12:57.177Z,39.10
2017-11-09T17:15:24.689Z,40.07
2017-11-09T17:17:55.409Z,40.80
2017-11-09T17:20:22.913Z,38.87
2017-11-09T17:22:50.584Z,41.43
2017-11-09T17:25:18.096Z,39.13
2017-11-09T17:27:45.600Z,39.03
2017-11-09T17:30:13.880Z,40.40
2017-11-09T17:32:41.967Z,39.67
2017-11-09T17:35:09.494Z,39.77
2017-11-09T17:37:37.757Z,39.33
2017-11-09T17:40:06.032Z,39.53
2017-11-09T17:42:39.174Z,40.77
2017-11-09T17:45:06.675Z,38.37
2017-11-09T17:47:34.185Z,37.83
2017-11-09T17:50:02.084Z,40.50
2017-11-09T17:52:29.618Z,38.70
2017-11-09T17:54:57.142Z,37.70
2017-11-09T17:57:25.449Z,37.90
2017-11-09T17:59:58.688Z,37.77
2017-11-09T18:02:26.497Z,39.10
2017-11-09T18:04:53.993Z,39.90
2017-11-09T18:07:21.485Z,48.90
2017-11-09T18:09:49.010Z,39.80
2017-11-09T18:12:16.516Z,42.57
2017-11-09T18:14:44.817Z,39.43
2017-11-09T18:17:12.373Z,40.47
2017-11-09T18:19:52.841Z,39.17
2017-11-09T18:22:20.381Z,38.80
2017-11-09T18:24:49.451Z,42.17
2017-11-09T18:27:17.066Z,40.50
2017-11-09T18:29:44.624Z,39.93
2017-11-09T18:32:12.131Z,39.20
2017-11-09T18:34:39.650Z,40.17
2017-11-09T18:37:07.225Z,38.80
2017-11-09T18:39:34.845Z,39.23
2017-11-09T18:42:03.120Z,40.43
2017-11-09T18:44:31.421Z,41.47
2017-11-09T18:46:58.963Z,42.17
2017-11-09T18:49:26.477Z,42.80
2017-11-09T18:51:54.763Z,39.30
2017-11-09T18:54:22.277Z,41.53
2017-11-09T18:56:49.777Z,43.33
2017-11-09T18:59:18.214Z,42.17
2017-11-09T19:01:45.759Z,42.10
2017-11-09T19:04:14.183Z,39.27
2017-11-09T19:06:41.688Z,44.17
2017-11-09T19:09:09.415Z,43.77
2017-11-09T19:11:36.924Z,43.17
2017-11-09T19:14:04.449Z,42.80
2017-11-09T19:16:32.111Z,41.70
2017-11-09T19:18:59.655Z,45.53
2017-11-09T19:21:27.174Z,43.40
2017-11-09T19:23:54.726Z,42.20
2017-11-09T19:26:22.261Z,43.03
2017-11-09T19:28:50.542Z,40.20
2017-11-09T19:31:18.819Z,42.07
2017-11-09T19:33:47.091Z,44.20
2017-11-09T19:36:15.388Z,43.00
2017-11-09T19:38:43.012Z,42.07
2017-11-09T19:41:10.777Z,41.50
2017-11-09T19:43:38.327Z,41.77
2017-11-09T19:46:05.939Z,41.77
2017-11-09T19:48:33.464Z,43.27
2017-11-09T19:51:02.075Z,53.28
2017-11-09T19:53:29.578Z,42.27
2017-11-09T19:55:57.123Z,42.90
2017-11-09T19:58:24.625Z,40.43
2017-11-09T20:00:52.123Z,43.37
2017-11-09T20:03:19.658Z,41.10
2017-11-09T20:05:47.949Z,39.33
2017-11-09T20:08:15.463Z,37.77
2017-11-09T20:10:43.010Z,39.03
2017-11-09T20:13:10.525Z,37.53
2017-11-09T20:15:38.040Z,38.57
2017-11-09T20:18:05.629Z,37.00
2017-11-09T20:20:33.903Z,39.50
2017-11-09T20:23:02.270Z,37.77
2017-11-09T20:25:29.812Z,36.77
2017-11-09T20:27:57.329Z,37.97
2017-11-09T20:30:24.928Z,39.43
2017-11-09T20:32:52.459Z,38.07
2017-11-09T20:35:19.953Z,36.90
2017-11-09T20:37:47.464Z,36.23
2017-11-09T20:40:15.024Z,38.67
2017-11-09T20:42:42.587Z,36.27
2017-11-09T20:45:10.245Z,33.73
2017-11-09T20:47:38.135Z,36.13
2017-11-09T20:50:09.191Z,35.73
2017-11-09T20:52:37.193Z,35.00
2017-11-09T20:55:05.479Z,36.37
2017-11-09T20:57:33.076Z,36.97
2017-11-09T21:00:00.633Z,34.77
2017-11-09T21:02:28.136Z,36.93
2017-11-09T21:04:55.650Z,35.93
2017-11-09T21:07:23.141Z,35.47
2017-11-09T21:09:50.711Z,35.07
2017-11-09T21:12:18.342Z,36.00
2017-11-09T21:14:45.873Z,33.90
2017-11-09T21:17:13.508Z,33.87
2017-11-09T21:19:41.630Z,34.60
2017-11-09T21:22:09.142Z,35.07
2017-11-09T21:24:37.491Z,35.23
2017-11-09T21:27:05.028Z,32.83
2017-11-09T21:29:32.542Z,34.50
2017-11-09T21:32:00.897Z,32.07
2017-11-09T21:34:28.569Z,31.43
2017-11-09T21:36:56.138Z,32.03
2017-11-09T21:39:24.415Z,33.07
2017-11-09T21:41:52.229Z,32.90
2017-11-09T21:44:19.726Z,32.67
2017-11-09T21:46:47.343Z,33.30
2017-11-09T21:49:15.205Z,33.10
2017-11-09T21:51:42.708Z,31.73
2017-11-09T21:54:10.218Z,31.87
2017-11-09T21:56:38.037Z,32.23
2017-11-09T21:59:05.528Z,30.73
2017-11-09T22:01:34.626Z,32.00
2017-11-09T22:04:03.245Z,31.80
2017-11-09T22:06:30.746Z,32.13
2017-11-09T22:08:58.261Z,34.73
2017-11-09T22:11:25.768Z,33.20
2017-11-09T22:13:53.282Z,34.40
2017-11-09T22:16:20.795Z,33.47
2017-11-09T22:18:49.074Z,33.57
2017-11-09T22:21:17.349Z,34.90
2017-11-09T22:23:45.616Z,34.07
2017-11-09T22:26:13.125Z,32.30
2017-11-09T22:28:40.630Z,32.60
2017-11-09T22:31:08.907Z,33.10
2017-11-09T22:33:36.421Z,31.97
2017-11-09T22:36:04.016Z,31.67
2017-11-09T22:38:31.519Z,32.57
2017-11-09T22:40:59.036Z,31.67
2017-11-09T22:43:26.554Z,31.50
2017-11-09T22:45:54.109Z,29.27
2017-11-09T22:48:21.622Z,32.37
2017-11-09T22:50:49.149Z,30.90
2017-11-09T22:53:16.673Z,31.97
2017-11-09T22:55:44.178Z,32.03
2017-11-09T22:58:11.946Z,31.97
2017-11-09T23:00:39.488Z,31.23
2017-11-09T23:03:06.997Z,30.23
2017-11-09T23:05:35.268Z,31.23
2017-11-09T23:08:02.858Z,29.20
2017-11-09T23:10:30.405Z,30.93
2017-11-09T23:12:58.673Z,29.17
2017-11-09T23:15:26.984Z,28.43
2017-11-09T23:17:54.500Z,27.80
2017-11-09T23:20:24.043Z,28.10
2017-11-09T23:22:51.569Z,27.17
2017-11-09T23:25:20.087Z,26.00
2017-11-09T23:27:47.598Z,22.87
2017-11-09T23:30:15.113Z,22.17
2017-11-09T23:32:42.628Z,20.83
2017-11-09T23:35:10.940Z,21.90
2017-11-09T23:37:38.448Z,21.07
2017-11-09T23:40:05.945Z,20.47
2017-11-09T23:42:34.013Z,19.87
2017-11-09T23:45:01.669Z,19.37
2017-11-09T23:47:29.940Z,19.17
2017-11-09T23:49:59.110Z,18.27
2017-11-09T23:52:26.614Z,18.53
2017-11-09T23:54:54.138Z,18.97
2017-11-09T23:57:21.634Z,18.83
2017-11-09T23:59:49.120Z,19.77
